createdAt,value
2024-04-06T00:04:18.038Z,76
2024-04-06T00:14:18.282Z,76
2024-04-06T00:24:18.433Z,76
2024-04-06T00:34:18.621Z,77
2024-04-06T00:44:18.817Z,77
2024-04-06T00:54:19.014Z,77
2024-04-06T01:04:19.212Z,76
2024-04-06T01:14:19.418Z,77
2024-04-06T01:24:19.611Z,78
2024-04-06T01:34:19.825Z,78
2024-04-06T01:44:20.024Z,78
2024-04-06T01:54:20.233Z,78
2024-04-06T02:04:20.529Z,79
2024-04-06T02:14:20.641Z,79
2024-04-06T02:24:20.837Z,79
2024-04-06T02:34:21.066Z,79
2024-04-06T02:44:21.229Z,79
2024-04-06T02:54:21.428Z,79
2024-04-06T03:04:21.640Z,79
2024-04-06T03:14:21.821Z,79
2024-04-06T03:24:22.018Z,79
2024-04-06T03:44:22.423Z,79
2024-04-06T03:54:22.636Z,80
2024-04-06T04:04:22.841Z,80
2024-04-06T04:14:23.039Z,80
2024-04-06T04:24:23.229Z,80
2024-04-06T04:34:23.465Z,80
2024-04-06T04:44:30.075Z,80
2024-04-06T04:54:23.836Z,80
2024-04-06T05:04:24.046Z,79
2024-04-06T05:14:24.265Z,79
2024-04-06T05:24:24.430Z,79
2024-04-06T05:34:24.634Z,79
2024-04-06T05:44:24.840Z,80
2024-04-06T05:54:25.129Z,80
2024-04-06T06:04:25.251Z,80
2024-04-06T06:14:25.467Z,80
2024-04-06T07:44:27.256Z,72
2024-04-06T07:54:27.455Z,72
2024-04-06T08:04:27.647Z,70
2024-04-06T08:34:28.257Z,66
2024-04-06T08:54:28.633Z,64
2024-04-06T09:04:28.832Z,63
2024-04-06T09:14:29.035Z,62
2024-04-06T09:24:29.241Z,60
2024-04-06T09:34:29.441Z,60
2024-04-06T09:44:29.635Z,59
2024-04-06T09:54:29.834Z,57
2024-04-06T10:04:30.041Z,56
2024-04-06T10:14:30.226Z,56
2024-04-06T10:34:33.613Z,54
2024-04-06T10:44:30.861Z,53
2024-04-06T10:54:31.048Z,53
2024-04-06T11:04:31.384Z,53
2024-04-06T11:14:31.425Z,52
2024-04-06T11:24:31.634Z,51
2024-04-06T11:44:32.039Z,48
2024-04-06T11:54:32.226Z,48
2024-04-06T12:04:32.422Z,47
2024-04-06T12:14:32.658Z,47
2024-04-06T12:24:32.861Z,46
2024-04-06T12:34:33.027Z,46
2024-04-06T12:44:33.232Z,45
2024-04-06T12:54:33.434Z,44
2024-04-06T13:04:33.636Z,44
2024-04-06T13:24:34.065Z,42
2024-04-06T13:34:34.247Z,42
2024-04-06T13:44:34.424Z,41
2024-04-06T13:54:34.658Z,41
2024-04-06T14:04:34.844Z,41
2024-04-06T14:14:35.023Z,41
2024-04-06T14:24:35.216Z,40
2024-04-06T14:34:35.500Z,40
2024-04-06T14:44:35.622Z,40
2024-04-06T15:24:36.489Z,40
2024-04-06T15:44:36.846Z,41
2024-04-06T15:54:37.021Z,41
2024-04-06T16:14:37.423Z,41
2024-04-06T16:24:37.651Z,41
2024-04-06T16:34:37.823Z,41
2024-04-06T16:44:38.026Z,42
2024-04-06T16:54:38.230Z,42
2024-04-06T17:04:38.422Z,42
2024-04-06T17:24:38.824Z,43
2024-04-06T17:34:39.016Z,43
2024-04-06T17:44:39.220Z,43
2024-04-06T17:54:39.432Z,44
2024-04-06T18:04:39.613Z,44
2024-04-06T18:14:39.806Z,44
2024-04-06T18:24:40.018Z,44
2024-04-06T18:34:40.212Z,44
2024-04-06T18:44:40.413Z,44
2024-04-06T18:54:40.644Z,45
2024-04-06T19:04:40.806Z,45
2024-04-06T19:14:41.001Z,44
2024-04-06T19:24:41.379Z,45
2024-04-06T19:34:41.435Z,44
2024-04-06T19:44:41.616Z,44
2024-04-06T19:54:41.802Z,44
2024-04-06T20:04:42.087Z,44
2024-04-06T20:14:42.282Z,44
2024-04-06T20:24:44.220Z,44
2024-04-06T20:34:42.603Z,45
2024-04-06T20:54:43.006Z,47
2024-04-06T21:04:43.196Z,48
2024-04-06T21:14:43.455Z,48
2024-04-06T21:24:43.597Z,48
2024-04-06T21:34:43.784Z,48
2024-04-06T21:44:44.017Z,47
2024-04-06T21:54:44.204Z,47
2024-04-06T22:14:44.605Z,48
2024-04-06T22:24:44.795Z,49
2024-04-06T22:34:45.011Z,50
2024-04-06T22:44:45.192Z,50
2024-04-06T22:54:45.380Z,49
2024-04-06T23:04:45.630Z,48
2024-04-06T23:14:45.790Z,48
2024-04-06T23:24:45.986Z,48
2024-04-06T23:34:46.227Z,47
2024-04-06T23:44:46.388Z,46
2024-04-06T23:54:46.595Z,45
